Time;durP1;ratioP1;P1;durP2;ratioP2;P2;SDS_P1;SDS_P2;PMS_P1;PMS_P2;Temp;Humidity;BMP_temperature;BMP_pressure;BME280_temperature;BME280_humidity;BME280_pressure;Samples;Min_cycle;Max_cycle;Signal;HPM_P1;HPM_P2
2022/07/27 00:00:54;;;;;;;210.02;199.48;;;;;;;;;;5034318;28;20029;-64
2022/07/27 00:03:19;;;;;;;218.05;207.20;;;;;;;;;;5040099;28;20029;-63
2022/07/27 00:05:44;;;;;;;203.75;193.52;;;;;;;;;;5046872;28;20025;-63
2022/07/27 00:08:10;;;;;;;198.05;188.15;;;;;;;;;;5041139;28;20060;-64
2022/07/27 00:10:36;;;;;;;181.70;172.63;;;;;;;;;;5036351;28;20122;-63
2022/07/27 00:13:05;;;;;;;158.45;150.50;;;;;;;;;;5034463;28;20025;-63
2022/07/27 00:15:30;;;;;;;145.90;138.57;;;;;;;;;;5037662;28;20025;-63
2022/07/27 00:17:59;;;;;;;165.60;157.30;;;;;;;;;;5035606;28;20356;-64
2022/07/27 00:20:26;;;;;;;182.82;173.70;;;;;;;;;;5050633;28;20115;-63
2022/07/27 00:22:51;;;;;;;179.77;170.80;;;;;;;;;;5043007;28;20063;-63
2022/07/27 00:25:17;;;;;;;192.30;182.75;;;;;;;;;;5035079;28;20124;-63
2022/07/27 00:27:42;;;;;;;169.23;160.77;;;;;;;;;;5039022;28;20063;-63
2022/07/27 00:30:08;;;;;;;126.85;120.50;;;;;;;;;;5042560;28;20108;-63
2022/07/27 00:32:33;;;;;;;136.68;129.85;;;;;;;;;;5038412;28;20033;-63
2022/07/27 00:34:58;;;;;;;96.60;91.78;;;;;;;;;;5036462;28;20127;-63
2022/07/27 00:37:24;;;;;;;61.15;58.05;;;;;;;;;;5041054;28;20111;-63
2022/07/27 00:39:49;;;;;;;99.65;94.65;;;;;;;;;;5041549;28;20287;-63
2022/07/27 00:42:14;;;;;;;96.50;91.70;;;;;;;;;;5039345;28;20029;-63
2022/07/27 00:44:40;;;;;;;90.00;85.53;;;;;;;;;;5036612;28;20099;-62
2022/07/27 00:47:05;;;;;;;51.38;48.75;;;;;;;;;;5038971;28;20079;-62
2022/07/27 00:49:31;;;;;;;36.97;35.08;;;;;;;;;;5040286;28;20037;-63
2022/07/27 00:51:56;;;;;;;48.50;46.05;;;;;;;;;;5035931;28;20396;-64
2022/07/27 00:54:22;;;;;;;48.15;45.70;;;;;;;;;;5035571;28;20090;-64
2022/07/27 00:56:48;;;;;;;32.08;30.40;;;;;;;;;;5038305;28;20313;-64
2022/07/27 00:59:14;;;;;;;28.85;27.35;;;;;;;;;;5038476;28;20112;-63
2022/07/27 01:01:40;;;;;;;37.40;35.47;;;;;;;;;;5036739;28;20043;-64
2022/07/27 01:04:05;;;;;;;31.13;29.50;;;;;;;;;;5046357;28;20112;-63
2022/07/27 01:06:32;;;;;;;23.45;22.20;;;;;;;;;;5042121;28;20476;-63
2022/07/27 01:11:43;;;;;;;26.88;25.45;;;;;;;;;;5042682;28;20406;-63
2022/07/27 01:14:11;;;;;;;26.83;25.42;;;;;;;;;;5045273;28;20025;-62
2022/07/27 01:16:36;;;;;;;25.45;24.10;;;;;;;;;;5040089;28;20062;-62
2022/07/27 01:19:01;;;;;;;20.58;19.48;;;;;;;;;;5038125;28;20040;-63
2022/07/27 01:21:27;;;;;;;24.83;23.52;;;;;;;;;;5039365;28;20112;-62
2022/07/27 01:23:52;;;;;;;24.30;23.00;;;;;;;;;;5037905;28;20029;-63
2022/07/27 01:26:17;;;;;;;32.22;30.13;;;;;;;;;;5042357;28;20431;-63
2022/07/27 01:28:44;;;;;;;39.28;37.25;;;;;;;;;;5039638;28;20033;-62
2022/07/27 01:31:09;;;;;;;32.42;30.73;;;;;;;;;;5037823;28;20518;-62
2022/07/27 01:33:35;;;;;;;27.05;25.65;;;;;;;;;;5041775;28;20047;-62
2022/07/27 01:36:00;;;;;;;22.55;21.35;;;;;;;;;;5040782;28;20036;-64
2022/07/27 01:38:25;;;;;;;28.88;27.38;;;;;;;;;;5044015;28;20268;-63
2022/07/27 01:40:52;;;;;;;29.52;27.92;;;;;;;;;;5039034;28;20033;-63
2022/07/27 01:43:18;;;;;;;26.08;24.70;;;;;;;;;;5041016;28;20455;-63
2022/07/27 01:45:43;;;;;;;26.40;25.00;;;;;;;;;;5041241;28;20102;-63
2022/07/27 01:48:09;;;;;;;47.88;45.45;;;;;;;;;;5041291;28;20025;-63
2022/07/27 01:50:34;;;;;;;40.63;38.55;;;;;;;;;;5038713;28;20029;-62
2022/07/27 01:53:00;;;;;;;33.45;31.73;;;;;;;;;;5042112;28;20052;-62
2022/07/27 01:55:25;;;;;;;27.63;26.17;;;;;;;;;;5039959;28;20473;-63
2022/07/27 01:57:50;;;;;;;31.88;30.23;;;;;;;;;;5037015;28;20051;-62
2022/07/27 02:00:16;;;;;;;29.02;27.50;;;;;;;;;;5042066;28;20025;-63
2022/07/27 02:02:41;;;;;;;33.42;31.52;;;;;;;;;;5038874;28;20033;-62
2022/07/27 02:05:10;;;;;;;21.50;20.30;;;;;;;;;;5043671;28;20089;-63
2022/07/27 02:07:37;;;;;;;25.63;24.25;;;;;;;;;;5042376;28;20378;-63
2022/07/27 02:10:03;;;;;;;29.08;27.55;;;;;;;;;;5037129;28;20048;-63
2022/07/27 02:12:34;;;;;;;30.60;29.00;;;;;;;;;;5041676;28;20502;-63
2022/07/27 02:15:10;;;;;;;24.33;23.02;;;;;;;;;;5039158;28;20579;-63
2022/07/27 02:17:36;;;;;;;30.98;29.35;;;;;;;;;;5039196;28;20275;-62
2022/07/27 02:20:03;;;;;;;28.20;26.70;;;;;;;;;;5038932;28;20028;-63
2022/07/27 02:22:29;;;;;;;33.92;32.17;;;;;;;;;;5042965;28;20041;-63
2022/07/27 02:24:54;;;;;;;37.22;35.30;;;;;;;;;;5039450;28;20029;-63
2022/07/27 02:27:19;;;;;;;38.83;36.83;;;;;;;;;;5040897;28;20447;-64
2022/07/27 02:29:45;;;;;;;36.80;34.92;;;;;;;;;;5035503;28;20037;-63
2022/07/27 02:32:10;;;;;;;39.67;37.63;;;;;;;;;;5039918;28;20029;-64
2022/07/27 02:34:35;;;;;;;43.03;40.83;;;;;;;;;;5040613;28;20037;-64
2022/07/27 02:37:01;;;;;;;45.47;43.15;;;;;;;;;;5037323;28;20036;-64
2022/07/27 02:39:26;;;;;;;36.40;34.50;;;;;;;;;;5040728;28;20094;-64
2022/07/27 02:41:51;;;;;;;40.40;38.33;;;;;;;;;;5037806;28;20044;-63
2022/07/27 02:44:17;;;;;;;47.15;44.78;;;;;;;;;;5037744;28;20026;-63
2022/07/27 02:46:43;;;;;;;52.90;50.22;;;;;;;;;;5038524;28;20060;-64
2022/07/27 02:49:08;;;;;;;62.88;59.72;;;;;;;;;;5039278;28;20059;-63
2022/07/27 02:51:35;;;;;;;44.50;42.22;;;;;;;;;;5038223;28;20391;-63
2022/07/27 02:54:00;;;;;;;48.35;45.90;;;;;;;;;;5036165;28;20412;-63
2022/07/27 02:56:25;;;;;;;49.72;47.17;;;;;;;;;;5037383;28;20112;-64
2022/07/27 02:58:51;;;;;;;44.42;42.15;;;;;;;;;;5033882;28;20029;-64
2022/07/27 03:01:16;;;;;;;41.70;39.60;;;;;;;;;;5037118;28;20025;-64
2022/07/27 03:03:41;;;;;;;47.75;45.35;;;;;;;;;;5037880;28;20029;-64
2022/07/27 03:06:08;;;;;;;50.40;47.85;;;;;;;;;;5038656;28;20043;-64
2022/07/27 03:08:36;;;;;;;58.25;55.30;;;;;;;;;;5035132;28;20040;-63
2022/07/27 03:11:02;;;;;;;52.00;49.38;;;;;;;;;;5038022;28;20421;-63
2022/07/27 03:13:28;;;;;;;70.05;66.55;;;;;;;;;;5038244;28;20291;-64
2022/07/27 03:15:54;;;;;;;51.03;48.40;;;;;;;;;;5037397;28;20074;-63
2022/07/27 03:18:20;;;;;;;74.32;70.57;;;;;;;;;;5038649;28;20382;-64
2022/07/27 03:20:45;;;;;;;54.00;51.30;;;;;;;;;;5037401;28;20029;-64
2022/07/27 03:23:11;;;;;;;74.90;71.18;;;;;;;;;;5035334;28;20150;-64
2022/07/27 03:25:36;;;;;;;81.95;77.85;;;;;;;;;;5038165;28;20025;-63
2022/07/27 03:28:02;;;;;;;75.03;71.10;;;;;;;;;;5038243;28;20025;-63
2022/07/27 03:30:27;;;;;;;60.92;57.85;;;;;;;;;;5035425;28;20155;-64
2022/07/27 03:32:52;;;;;;;58.10;55.15;;;;;;;;;;5036804;28;20041;-64
2022/07/27 03:35:18;;;;;;;65.25;61.97;;;;;;;;;;5037533;28;20213;-64
2022/07/27 03:37:43;;;;;;;44.75;42.45;;;;;;;;;;5030850;28;20576;-63
2022/07/27 03:40:09;;;;;;;55.40;52.60;;;;;;;;;;5036708;28;20232;-63
2022/07/27 03:42:35;;;;;;;56.42;53.38;;;;;;;;;;5040134;28;20303;-63
2022/07/27 03:45:00;;;;;;;59.97;56.97;;;;;;;;;;5031233;28;20093;-64
2022/07/27 03:47:25;;;;;;;52.75;50.10;;;;;;;;;;5038381;28;20108;-63
2022/07/27 03:49:51;;;;;;;64.97;61.70;;;;;;;;;;5039338;28;20072;-64
2022/07/27 03:52:18;;;;;;;69.25;65.78;;;;;;;;;;5040852;28;20067;-64
2022/07/27 03:54:43;;;;;;;67.82;64.43;;;;;;;;;;5037139;28;20032;-64
2022/07/27 03:57:09;;;;;;;92.65;88.05;;;;;;;;;;5042308;28;20229;-63
2022/07/27 03:59:34;;;;;;;90.05;85.53;;;;;;;;;;5044787;28;20091;-63
2022/07/27 04:01:59;;;;;;;89.57;85.10;;;;;;;;;;5037642;28;20102;-63
2022/07/27 04:04:25;;;;;;;76.40;72.57;;;;;;;;;;5033438;28;20036;-64
2022/07/27 04:06:50;;;;;;;70.50;66.95;;;;;;;;;;5036663;28;20029;-64
2022/07/27 04:09:15;;;;;;;101.80;96.75;;;;;;;;;;5038161;28;20025;-64
2022/07/27 04:11:42;;;;;;;91.57;87.00;;;;;;;;;;5037129;28;20028;-63
2022/07/27 04:14:07;;;;;;;84.20;80.00;;;;;;;;;;5035522;28;20375;-63
2022/07/27 04:16:32;;;;;;;71.78;68.13;;;;;;;;;;5040811;28;20064;-63
2022/07/27 04:18:58;;;;;;;74.82;71.05;;;;;;;;;;5035945;28;20021;-63
2022/07/27 04:21:23;;;;;;;73.28;69.60;;;;;;;;;;5041038;28;20032;-65
2022/07/27 04:23:48;;;;;;;61.92;58.80;;;;;;;;;;5039050;28;20024;-64
2022/07/27 04:26:14;;;;;;;38.75;36.75;;;;;;;;;;5040713;28;20155;-64
2022/07/27 04:28:40;;;;;;;24.65;23.25;;;;;;;;;;5042101;28;20116;-63
2022/07/27 04:31:06;;;;;;;15.18;14.32;;;;;;;;;;5038294;28;20029;-64
2022/07/27 04:33:31;;;;;;;27.30;18.15;;;;;;;;;;5036655;28;20036;-64
2022/07/27 04:35:57;;;;;;;19.75;18.70;;;;;;;;;;5030710;28;20035;-64
2022/07/27 04:38:22;;;;;;;21.73;20.55;;;;;;;;;;5038922;28;20474;-63
2022/07/27 04:40:47;;;;;;;30.90;29.30;;;;;;;;;;5043163;28;20374;-63
2022/07/27 04:43:12;;;;;;;30.58;29.00;;;;;;;;;;5046654;28;20454;-63
2022/07/27 04:45:38;;;;;;;34.65;32.85;;;;;;;;;;5043702;28;20493;-65
2022/07/27 04:48:08;;;;;;;21.63;20.42;;;;;;;;;;5044236;28;20032;-64
2022/07/27 04:50:40;;;;;;;23.48;22.17;;;;;;;;;;5044333;28;20095;-64
2022/07/27 04:53:07;;;;;;;23.25;22.02;;;;;;;;;;5040957;28;20066;-65
2022/07/27 04:55:32;;;;;;;30.13;28.52;;;;;;;;;;5040074;28;20489;-64
2022/07/27 04:57:58;;;;;;;30.65;29.05;;;;;;;;;;5042124;28;20034;-65
2022/07/27 05:00:23;;;;;;;27.40;25.98;;;;;;;;;;5048092;28;20033;-65
2022/07/27 05:02:48;;;;;;;27.63;26.17;;;;;;;;;;5043509;28;20024;-64
2022/07/27 05:05:14;;;;;;;30.58;28.98;;;;;;;;;;5041719;28;20029;-65
2022/07/27 05:07:39;;;;;;;29.42;27.83;;;;;;;;;;5038478;28;20371;-65
2022/07/27 05:10:05;;;;;;;27.73;26.27;;;;;;;;;;5040260;28;20549;-64
2022/07/27 05:12:30;;;;;;;24.67;23.38;;;;;;;;;;5043242;28;20052;-65
2022/07/27 05:14:55;;;;;;;22.42;21.23;;;;;;;;;;5042365;28;20029;-64
2022/07/27 05:17:21;;;;;;;20.77;19.65;;;;;;;;;;5042092;28;20052;-64
2022/07/27 05:19:46;;;;;;;23.05;21.80;;;;;;;;;;5040973;28;20029;-65
2022/07/27 05:22:11;;;;;;;26.00;24.65;;;;;;;;;;5044308;28;20406;-65
2022/07/27 05:24:36;;;;;;;23.33;21.50;;;;;;;;;;5043951;28;20028;-64
2022/07/27 05:27:02;;;;;;;21.20;20.08;;;;;;;;;;5044439;28;20048;-63
2022/07/27 05:29:27;;;;;;;22.73;21.42;;;;;;;;;;5039141;28;20043;-63
2022/07/27 05:31:53;;;;;;;21.15;20.02;;;;;;;;;;5042788;28;20044;-64
2022/07/27 05:34:18;;;;;;;21.00;19.88;;;;;;;;;;5045909;28;20159;-64
2022/07/27 05:36:44;;;;;;;23.88;22.60;;;;;;;;;;5044271;28;20754;-64
2022/07/27 05:39:09;;;;;;;22.77;21.52;;;;;;;;;;5035315;28;20030;-64
2022/07/27 05:41:34;;;;;;;20.25;19.15;;;;;;;;;;5038393;28;20509;-65
2022/07/27 05:44:00;;;;;;;19.95;18.63;;;;;;;;;;5041182;28;20103;-64
2022/07/27 05:46:25;;;;;;;22.30;21.10;;;;;;;;;;5038843;28;20057;-64
2022/07/27 05:48:50;;;;;;;21.30;20.15;;;;;;;;;;5038316;28;20658;-64
2022/07/27 05:51:16;;;;;;;21.00;19.88;;;;;;;;;;5045741;28;20048;-64
2022/07/27 05:53:41;;;;;;;21.13;19.98;;;;;;;;;;5045506;28;20576;-64
2022/07/27 05:56:07;;;;;;;26.77;25.30;;;;;;;;;;5044309;28;20063;-64
2022/07/27 05:58:32;;;;;;;23.30;22.00;;;;;;;;;;5045329;28;20047;-65
2022/07/27 06:00:58;;;;;;;24.90;23.60;;;;;;;;;;5043350;28;20037;-64
2022/07/27 06:03:25;;;;;;;16.88;15.95;;;;;;;;;;5045396;28;20078;-65
2022/07/27 06:05:50;;;;;;;16.60;15.70;;;;;;;;;;5037951;28;20029;-65
2022/07/27 06:08:16;;;;;;;13.65;12.85;;;;;;;;;;5043051;28;20512;-65
2022/07/27 06:10:41;;;;;;;12.40;11.70;;;;;;;;;;5040100;28;20048;-66
2022/07/27 06:13:10;;;;;;;15.02;13.98;;;;;;;;;;5038742;28;20770;-66
2022/07/27 06:15:37;;;;;;;15.13;14.27;;;;;;;;;;5044090;28;20036;-65
2022/07/27 06:18:03;;;;;;;12.57;11.88;;;;;;;;;;5044596;28;20021;-66
2022/07/27 06:20:28;;;;;;;14.82;14.00;;;;;;;;;;5040322;28;20029;-65
2022/07/27 06:22:57;;;;;;;11.05;10.35;;;;;;;;;;5038685;28;20029;-65
2022/07/27 06:25:26;;;;;;;16.17;15.27;;;;;;;;;;5041085;28;20111;-66
2022/07/27 06:27:52;;;;;;;12.20;11.50;;;;;;;;;;5043270;28;20068;-64
2022/07/27 06:30:18;;;;;;;12.98;12.23;;;;;;;;;;5039142;28;20025;-64
2022/07/27 06:32:45;;;;;;;18.80;17.80;;;;;;;;;;5042775;28;20033;-65
2022/07/27 06:35:12;;;;;;;34.85;33.03;;;;;;;;;;5041499;28;20127;-65
2022/07/27 06:37:42;;;;;;;15.27;14.38;;;;;;;;;;5037807;28;20103;-64
2022/07/27 06:40:12;;;;;;;28.85;27.25;;;;;;;;;;5036982;28;20128;-63
2022/07/27 06:42:37;;;;;;;33.60;31.80;;;;;;;;;;5043226;28;20036;-64
2022/07/27 06:45:04;;;;;;;21.10;19.98;;;;;;;;;;5035820;28;20033;-64
2022/07/27 06:47:29;;;;;;;43.28;41.08;;;;;;;;;;5034769;28;20033;-68
2022/07/27 06:49:55;;;;;;;32.63;30.92;;;;;;;;;;5038289;28;20391;-67
2022/07/27 06:52:20;;;;;;;47.70;45.28;;;;;;;;;;5039886;28;20064;-64
2022/07/27 06:54:45;;;;;;;43.53;41.22;;;;;;;;;;5036997;28;20037;-64
2022/07/27 06:57:11;;;;;;;70.40;66.88;;;;;;;;;;5034306;28;20139;-65
2022/07/27 06:59:36;;;;;;;47.50;45.10;;;;;;;;;;5032667;28;20120;-64
2022/07/27 07:02:01;;;;;;;45.38;43.08;;;;;;;;;;5034135;28;20025;-65
2022/07/27 07:04:27;;;;;;;76.97;73.15;;;;;;;;;;5033869;28;20061;-65
2022/07/27 07:06:52;;;;;;;58.22;55.30;;;;;;;;;;5036482;28;20134;-59
2022/07/27 07:09:18;;;;;;;52.85;50.15;;;;;;;;;;5039584;28;20057;-58
2022/07/27 07:11:43;;;;;;;45.92;43.53;;;;;;;;;;5038482;28;20041;-59
2022/07/27 07:14:09;;;;;;;48.83;46.33;;;;;;;;;;5034440;28;20037;-59
2022/07/27 07:16:35;;;;;;;42.72;40.53;;;;;;;;;;5053129;28;20051;-59
2022/07/27 07:19:00;;;;;;;47.78;45.33;;;;;;;;;;5038745;28;20276;-58
2022/07/27 07:21:25;;;;;;;52.72;50.03;;;;;;;;;;5042324;28;20028;-58
2022/07/27 07:23:51;;;;;;;57.35;54.40;;;;;;;;;;5039428;28;20067;-58
2022/07/27 07:26:16;;;;;;;44.30;42.00;;;;;;;;;;5037630;28;20029;-58
2022/07/27 07:28:42;;;;;;;55.28;52.47;;;;;;;;;;5036709;28;21064;-58
2022/07/27 07:31:08;;;;;;;49.22;46.75;;;;;;;;;;5038847;28;20132;-59
2022/07/27 07:33:33;;;;;;;62.08;58.95;;;;;;;;;;5038854;28;20024;-58
2022/07/27 07:35:58;;;;;;;53.33;50.53;;;;;;;;;;5035658;28;20029;-58
2022/07/27 07:38:23;;;;;;;65.10;61.78;;;;;;;;;;5035589;28;20030;-59
2022/07/27 07:40:49;;;;;;;60.08;57.05;;;;;;;;;;5038236;28;20028;-58
2022/07/27 07:43:14;;;;;;;55.55;52.75;;;;;;;;;;5036426;28;20128;-58
2022/07/27 07:45:41;;;;;;;63.03;59.72;;;;;;;;;;5036527;28;20068;-58
2022/07/27 07:48:07;;;;;;;54.30;51.53;;;;;;;;;;5034624;28;20060;-58
2022/07/27 07:50:33;;;;;;;48.90;46.42;;;;;;;;;;5036563;28;20442;-58
2022/07/27 07:52:58;;;;;;;53.42;50.50;;;;;;;;;;5038128;28;20057;-58
2022/07/27 07:55:26;;;;;;;46.95;44.58;;;;;;;;;;5036459;28;20033;-59
2022/07/27 07:57:52;;;;;;;66.63;63.25;;;;;;;;;;5038580;28;20099;-59
2022/07/27 08:00:18;;;;;;;62.08;58.95;;;;;;;;;;5037743;28;20036;-58
2022/07/27 08:02:48;;;;;;;59.28;56.30;;;;;;;;;;5041179;28;20128;-58
2022/07/27 08:05:14;;;;;;;46.70;44.30;;;;;;;;;;5038801;28;20465;-58
2022/07/27 08:07:41;;;;;;;65.68;62.38;;;;;;;;;;5040140;28;20238;-58
2022/07/27 08:10:08;;;;;;;56.15;53.33;;;;;;;;;;5039522;28;20031;-58
2022/07/27 08:12:39;;;;;;;52.15;49.55;;;;;;;;;;5040968;28;20044;-59
2022/07/27 08:15:06;;;;;;;64.88;61.63;;;;;;;;;;5035739;28;20068;-59
2022/07/27 08:17:32;;;;;;;62.95;59.55;;;;;;;;;;5033096;28;20111;-59
2022/07/27 08:19:57;;;;;;;49.25;46.75;;;;;;;;;;5037697;28;20102;-58
2022/07/27 08:22:23;;;;;;;68.28;64.85;;;;;;;;;;5034794;28;20044;-58
2022/07/27 08:24:49;;;;;;;75.90;72.13;;;;;;;;;;5041083;28;20036;-58
2022/07/27 08:27:15;;;;;;;73.18;69.50;;;;;;;;;;5042627;28;20470;-58
2022/07/27 08:29:40;;;;;;;82.25;78.15;;;;;;;;;;5034955;28;20041;-58
2022/07/27 08:32:05;;;;;;;60.08;54.33;;;;;;;;;;5036808;28;20029;-59
2022/07/27 08:34:31;;;;;;;58.60;55.67;;;;;;;;;;5038566;28;20028;-58
2022/07/27 08:36:57;;;;;;;80.88;76.82;;;;;;;;;;5036441;28;20052;-58
2022/07/27 08:39:23;;;;;;;61.47;58.33;;;;;;;;;;5040055;28;20039;-58
2022/07/27 08:41:51;;;;;;;65.63;62.33;;;;;;;;;;5038116;28;20036;-58
2022/07/27 08:44:17;;;;;;;68.40;65.00;;;;;;;;;;5040371;28;20096;-58
2022/07/27 08:46:44;;;;;;;50.55;47.63;;;;;;;;;;5032900;28;20528;-58
2022/07/27 08:49:11;;;;;;;85.13;80.88;;;;;;;;;;5041065;28;20029;-58
2022/07/27 08:51:36;;;;;;;81.93;77.78;;;;;;;;;;5035272;28;20106;-58
2022/07/27 08:54:02;;;;;;;93.72;89.07;;;;;;;;;;5034859;28;20494;-58
2022/07/27 08:56:27;;;;;;;97.38;92.57;;;;;;;;;;5031473;28;20045;-58
2022/07/27 08:58:52;;;;;;;57.55;54.65;;;;;;;;;;5035739;28;20068;-58
2022/07/27 09:01:18;;;;;;;78.15;74.25;;;;;;;;;;5040369;28;20479;-58
2022/07/27 09:03:44;;;;;;;71.22;67.60;;;;;;;;;;5038770;28;20669;-58
2022/07/27 09:06:09;;;;;;;93.15;88.55;;;;;;;;;;5034007;28;20142;-58
2022/07/27 09:08:37;;;;;;;118.45;112.60;;;;;;;;;;5038842;28;20533;-59
2022/07/27 09:11:12;;;;;;;119.15;113.28;;;;;;;;;;5040716;28;20492;-58
2022/07/27 09:13:37;;;;;;;115.28;109.45;;;;;;;;;;5035560;28;20386;-58
2022/07/27 09:16:05;;;;;;;109.03;103.65;;;;;;;;;;5038596;28;20035;-58
2022/07/27 09:18:32;;;;;;;100.18;95.22;;;;;;;;;;5038400;28;20056;-58
2022/07/27 09:21:20;;;;;;;115.78;109.75;;;;;;;;;;5035163;28;20036;-58
2022/07/27 09:23:54;;;;;;;90.35;85.88;;;;;;;;;;5035628;28;20105;-59
2022/07/27 09:26:25;;;;;;;98.88;93.97;;;;;;;;;;5039725;28;20020;-59
2022/07/27 09:28:58;;;;;;;107.63;102.32;;;;;;;;;;5041231;28;20072;-58
2022/07/27 09:31:24;;;;;;;129.75;123.35;;;;;;;;;;5039537;28;20029;-58
2022/07/27 09:33:55;;;;;;;145.57;138.38;;;;;;;;;;5040389;28;20037;-57
2022/07/27 09:36:22;;;;;;;125.80;119.60;;;;;;;;;;5040384;28;20405;-58
2022/07/27 09:39:05;;;;;;;128.02;121.72;;;;;;;;;;5041573;28;20033;-57
2022/07/27 09:41:44;;;;;;;103.10;97.90;;;;;;;;;;5038774;28;20038;-58
2022/07/27 09:44:10;;;;;;;150.07;142.60;;;;;;;;;;5039890;28;20116;-58
2022/07/27 09:46:38;;;;;;;150.43;142.98;;;;;;;;;;5040308;28;20036;-58
2022/07/27 09:49:04;;;;;;;152.27;144.75;;;;;;;;;;5043507;28;20033;-58
2022/07/27 09:51:30;;;;;;;176.80;168.13;;;;;;;;;;5040104;28;20045;-57
2022/07/27 09:53:58;;;;;;;163.18;155.13;;;;;;;;;;5040518;28;20048;-57
2022/07/27 09:56:26;;;;;;;170.95;162.52;;;;;;;;;;5040453;28;20063;-59
2022/07/27 09:58:55;;;;;;;177.82;169.10;;;;;;;;;;5040393;28;20075;-58
2022/07/27 10:01:28;;;;;;;147.98;140.68;;;;;;;;;;5036958;28;20116;-59
2022/07/27 10:03:57;;;;;;;165.85;157.65;;;;;;;;;;5036512;28;20040;-59
2022/07/27 10:06:24;;;;;;;181.90;172.98;;;;;;;;;;5040684;28;20028;-58
2022/07/27 10:08:50;;;;;;;161.85;153.85;;;;;;;;;;5039664;28;20052;-59
2022/07/27 10:11:18;;;;;;;173.68;165.10;;;;;;;;;;5035624;28;20393;-59
2022/07/27 10:13:44;;;;;;;170.38;161.98;;;;;;;;;;5039160;28;20190;-58
2022/07/27 10:16:12;;;;;;;174.25;165.70;;;;;;;;;;5040847;28;20043;-58
2022/07/27 10:19:13;;;;;;;158.88;151.02;;;;;;;;;;5038151;28;20537;-59
2022/07/27 10:21:42;;;;;;;162.05;154.07;;;;;;;;;;5039793;28;20650;-58
2022/07/27 10:24:22;;;;;;;170.60;162.25;;;;;;;;;;5037250;28;20036;-58
2022/07/27 10:26:48;;;;;;;166.30;158.13;;;;;;;;;;5033440;28;20056;-57
2022/07/27 10:29:13;;;;;;;154.98;147.20;;;;;;;;;;5037717;28;20031;-58
2022/07/27 10:31:41;;;;;;;132.95;126.38;;;;;;;;;;5036720;28;20581;-57
2022/07/27 10:34:11;;;;;;;158.57;150.77;;;;;;;;;;5036239;28;20025;-60
2022/07/27 10:36:48;;;;;;;155.73;148.00;;;;;;;;;;5042134;28;20025;-59
2022/07/27 10:39:31;;;;;;;168.18;159.82;;;;;;;;;;5041037;28;20029;-60
2022/07/27 10:42:29;;;;;;;169.75;161.25;;;;;;;;;;5038795;28;20107;-59
2022/07/27 10:45:05;;;;;;;154.65;147.02;;;;;;;;;;5039356;28;20529;-59
2022/07/27 10:47:40;;;;;;;118.45;112.63;;;;;;;;;;5038451;28;20497;-60
2022/07/27 10:50:15;;;;;;;81.80;77.75;;;;;;;;;;5039461;28;20036;-59
2022/07/27 10:53:07;;;;;;;148.80;141.45;;;;;;;;;;5038665;28;20087;-58
2022/07/27 10:55:35;;;;;;;143.10;136.00;;;;;;;;;;5020159;28;20037;-59
2022/07/27 10:58:02;;;;;;;40.87;38.77;;;;;;;;;;5037067;28;20645;-59
2022/07/27 11:00:49;;;;;;;101.07;96.07;;;;;;;;;;5035362;28;20120;-58
2022/07/27 11:03:25;;;;;;;96.32;91.55;;;;;;;;;;5039578;28;20068;-59
2022/07/27 11:05:58;;;;;;;147.55;140.27;;;;;;;;;;5034420;28;20499;-58
2022/07/27 11:08:29;;;;;;;70.97;67.45;;;;;;;;;;5036739;28;20040;-58
2022/07/27 11:10:55;;;;;;;81.05;77.00;;;;;;;;;;5038060;28;20026;-58
2022/07/27 11:13:23;;;;;;;40.58;38.47;;;;;;;;;;5043445;28;20036;-58
2022/07/27 11:15:57;;;;;;;40.10;38.05;;;;;;;;;;5037272;28;20041;-58
2022/07/27 11:18:30;;;;;;;34.33;32.53;;;;;;;;;;5044363;28;20040;-58
2022/07/27 11:21:15;;;;;;;31.92;30.27;;;;;;;;;;5040493;28;20063;-59
2022/07/27 11:23:42;;;;;;;52.63;49.97;;;;;;;;;;5037843;28;20028;-59
2022/07/27 11:26:08;;;;;;;36.63;34.75;;;;;;;;;;5040506;28;20112;-59
2022/07/27 11:28:35;;;;;;;35.60;33.75;;;;;;;;;;5040414;28;20105;-59
2022/07/27 11:31:00;;;;;;;37.72;35.80;;;;;;;;;;5039728;28;20126;-60
2022/07/27 11:33:26;;;;;;;32.03;30.38;;;;;;;;;;5037986;28;20029;-59
2022/07/27 11:36:00;;;;;;;33.08;31.38;;;;;;;;;;5037657;28;20070;-59
2022/07/27 11:38:26;;;;;;;38.50;36.55;;;;;;;;;;5042442;28;20047;-59
2022/07/27 11:40:53;;;;;;;30.58;28.98;;;;;;;;;;5041518;28;20359;-60
2022/07/27 11:43:34;;;;;;;59.70;56.67;;;;;;;;;;5038887;28;20033;-60
2022/07/27 11:46:41;;;;;;;37.25;35.35;;;;;;;;;;5042943;28;20039;-59
2022/07/27 11:49:09;;;;;;;48.35;45.85;;;;;;;;;;5041010;28;20128;-59
2022/07/27 11:51:44;;;;;;;109.70;104.28;;;;;;;;;;5041063;28;20661;-59
2022/07/27 11:54:12;;;;;;;83.68;79.55;;;;;;;;;;5043537;28;20028;-59
2022/07/27 11:56:42;;;;;;;98.22;93.40;;;;;;;;;;5037208;28;20114;-60
2022/07/27 11:59:09;;;;;;;110.53;105.13;;;;;;;;;;5043592;28;20033;-60
2022/07/27 12:01:41;;;;;;;126.97;120.78;;;;;;;;;;5043143;28;20039;-60
2022/07/27 12:04:08;;;;;;;132.63;126.13;;;;;;;;;;5037880;28;20125;-60
2022/07/27 12:06:34;;;;;;;115.00;109.32;;;;;;;;;;5035008;28;20091;-60
2022/07/27 12:09:05;;;;;;;123.18;117.13;;;;;;;;;;5036956;28;20033;-60
2022/07/27 12:11:54;;;;;;;127.38;121.10;;;;;;;;;;5039496;28;20063;-60
2022/07/27 12:14:41;;;;;;;121.60;115.60;;;;;;;;;;5040082;28;20021;-60
2022/07/27 12:17:11;;;;;;;52.20;49.58;;;;;;;;;;5041327;28;20124;-59
2022/07/27 12:19:37;;;;;;;103.82;98.75;;;;;;;;;;5044414;28;20474;-59
2022/07/27 12:22:03;;;;;;;38.30;36.33;;;;;;;;;;5038288;28;20051;-59
2022/07/27 12:24:39;;;;;;;102.47;97.40;;;;;;;;;;5038605;28;20040;-59
2022/07/27 12:27:15;;;;;;;35.50;33.70;;;;;;;;;;5040294;28;20044;-59
2022/07/27 12:29:54;;;;;;;38.25;36.30;;;;;;;;;;5039292;28;20036;-59
2022/07/27 12:32:19;;;;;;;45.55;43.25;;;;;;;;;;5038286;28;20102;-59
2022/07/27 12:34:45;;;;;;;34.47;32.63;;;;;;;;;;5035552;28;20033;-59
2022/07/27 12:37:11;;;;;;;28.33;26.83;;;;;;;;;;5031208;28;20116;-59
2022/07/27 12:39:37;;;;;;;43.67;41.47;;;;;;;;;;5035283;28;20040;-59
2022/07/27 12:42:06;;;;;;;74.85;71.13;;;;;;;;;;5037740;28;20032;-59
2022/07/27 12:44:34;;;;;;;48.30;45.70;;;;;;;;;;5035566;28;20124;-59
2022/07/27 12:47:01;;;;;;;80.15;76.18;;;;;;;;;;5037806;28;20029;-59
2022/07/27 12:49:33;;;;;;;80.07;76.10;;;;;;;;;;5039146;28;20514;-59
2022/07/27 12:52:06;;;;;;;82.38;78.30;;;;;;;;;;5038495;28;20548;-59
2022/07/27 12:54:32;;;;;;;121.88;115.88;;;;;;;;;;5043143;28;20568;-59
2022/07/27 12:56:57;;;;;;;116.22;110.47;;;;;;;;;;5039443;28;20041;-59
2022/07/27 12:59:23;;;;;;;101.13;96.13;;;;;;;;;;5044960;28;20498;-59
2022/07/27 13:01:50;;;;;;;108.70;103.38;;;;;;;;;;5045433;28;20025;-59
2022/07/27 13:04:15;;;;;;;119.22;113.35;;;;;;;;;;5044956;28;20024;-59
2022/07/27 13:06:40;;;;;;;96.93;92.03;;;;;;;;;;5043180;28;20830;-59
2022/07/27 13:09:06;;;;;;;105.10;99.93;;;;;;;;;;5043808;28;20025;-59
2022/07/27 13:11:31;;;;;;;76.70;72.90;;;;;;;;;;5042577;28;20021;-59
2022/07/27 13:13:56;;;;;;;74.25;70.55;;;;;;;;;;5042374;28;20040;-59
2022/07/27 13:16:22;;;;;;;78.57;74.57;;;;;;;;;;5043969;28;20811;-59
2022/07/27 13:18:47;;;;;;;71.55;68.00;;;;;;;;;;5044294;28;20434;-59
2022/07/27 13:21:13;;;;;;;78.00;74.10;;;;;;;;;;5039847;28;20465;-59
2022/07/27 13:23:38;;;;;;;79.43;75.53;;;;;;;;;;5040442;28;20047;-60
2022/07/27 13:26:03;;;;;;;71.60;68.05;;;;;;;;;;5039928;28;20501;-60
2022/07/27 13:28:29;;;;;;;74.22;70.53;;;;;;;;;;5043987;28;20030;-60
2022/07/27 13:30:55;;;;;;;87.38;83.07;;;;;;;;;;5040336;28;20029;-60
2022/07/27 13:33:21;;;;;;;74.82;71.13;;;;;;;;;;5042443;28;20108;-59
2022/07/27 13:35:47;;;;;;;87.32;83.00;;;;;;;;;;5041291;28;20717;-60
2022/07/27 13:38:12;;;;;;;65.75;62.42;;;;;;;;;;5039814;28;20038;-59
2022/07/27 13:40:37;;;;;;;80.10;76.13;;;;;;;;;;5045333;28;20433;-61
2022/07/27 13:43:03;;;;;;;75.75;71.95;;;;;;;;;;5041885;28;20029;-59
2022/07/27 13:45:28;;;;;;;99.80;94.80;;;;;;;;;;5040867;28;20032;-59
2022/07/27 13:47:53;;;;;;;97.97;93.07;;;;;;;;;;5043564;28;20064;-59
2022/07/27 13:50:20;;;;;;;101.13;96.13;;;;;;;;;;5041866;28;20097;-58
2022/07/27 13:52:47;;;;;;;107.55;102.25;;;;;;;;;;5036970;28;20043;-58
2022/07/27 13:55:15;;;;;;;114.18;108.57;;;;;;;;;;5042058;28;20462;-59
2022/07/27 13:57:40;;;;;;;104.88;99.72;;;;;;;;;;5042848;28;20473;-59
2022/07/27 14:00:06;;;;;;;98.28;93.45;;;;;;;;;;5045457;28;20120;-58
2022/07/27 14:02:31;;;;;;;105.25;100.05;;;;;;;;;;5041412;28;20029;-60
2022/07/27 14:04:57;;;;;;;107.82;102.50;;;;;;;;;;5042121;28;20726;-58
2022/07/27 14:07:22;;;;;;;105.78;100.57;;;;;;;;;;5040626;28;20598;-58
2022/07/27 14:12:31;;;;;;;117.75;111.95;;;;;;;;;;5043819;28;20037;-58
2022/07/27 14:14:56;;;;;;;100.57;95.63;;;;;;;;;;5040351;28;20040;-58
2022/07/27 14:17:22;;;;;;;121.80;115.80;;;;;;;;;;5041103;28;20030;-58